Tilden, TX (78072)

5:53 PM CDT on August 30, 2014 (GMT -0500)
Huajuco Road | Change Station
CLOSE
Current Station
Personal Weather Station
Location: Cotulla, TX
Elevation: 394 ft
Nearby Weather Stations

Elev 394 ft 28.19 °N, 99.01 °W | Updated 11 seconds ago

Partly Cloudy
Partly Cloudy
95.2 °F
Feels Like 100 °F
N
11.9
Wind Variable Wind from ENE
Gusts 16.0 mph

Today
High -- | Low -- °F
--% Chance of Precip.
Yesterday
High -- | Low -- °F
Precip. -- in
7:11 AM 7:57 PM
Waxing Crescent, 25% visible
Pressure 29.79 in
Visibility 10.0 miles
Clouds Scattered Clouds 6500 ft
Scattered Clouds 8000 ft
Heat Index 100 °F
Dew Point 67 °F
Humidity 41%
Rainfall 0.00 in
Snow Depth Not available.
UV 4 out of 12
Pollen 9.00 out of 12
Air Quality Not available.
Flu Activity Not available.
METAR KCOT 302153Z AUTO 11010G16KT 080V140 10SM SCT065 SCT080 37/19 A2982 RMK AO2 SLP088 T03670189

More Conditions Fewer Conditions

Pressure 29.79 in
Visibility 10.0 miles
Clouds Scattered Clouds 6500 ft
Scattered Clouds 8000 ft
Heat Index 100 °F
Dew Point 67 °F
Humidity 41%
Rainfall 0.00 in
Snow Depth Not available.
UV 4 out of 12
Pollen 9.00 out of 12
Air Quality Not available.
Flu Activity Not available.
METAR KCOT 302153Z AUTO 11010G16KT 080V140 10SM SCT065 SCT080 37/19 A2982 RMK AO2 SLP088 T03670189

More Conditions Fewer Conditions

Nowcast | as of 4:58 PM CDT on August 30, 2014

Showers will continue to diminish in coverage across south Texas and the middle Texas coastal waters. Brief periods of light to moderate rain can be expected with any of this remaining activity. Additional accumulations expected between a trace and a few hundredths of an inch.

×

10-Day Weather Forecast

Almanac

Astronomy

Aug. 30, 2014 Rise Set
Actual Time 7:11 AM CDT 7:57 PM CDT
Civil Twilight 6:47 AM CDT 8:21 PM CDT
Nautical Twilight 6:19 AM CDT 8:50 PM CDT
Astronomical Twilight 5:50 AM CDT 9:18 PM CDT
Moon 11:34 AM CDT 11:01 PM CDT
Length of Visible Light 13h 33m
Length of Day
12h 45m
Tomorrow will be 1m 36s shorter.
Waxing Crescent, 25% of the Moon is Illuminated
Today
Waxing Crescent
Sep 2
First Quarter
Sep 8
Full
Sep 15
Last Quarter
Sep 24
New

Today's Extremes

State Highs State Lows

Community

WunderPhotos

Upload Photos

1,748,663 photos uploaded!

WunderBlogs® & News

Nearby

Snow Depth

Station Depth Elevation
No new snow has been reported.

Earthquake Activity

City Distance Mag. Time & Date
No recent earthquake activity has been reported nearby.
Minimum magnitude displayed is 2.5.

Coastal Water Temperatures

Place Temperature
No Stations Reporting

Nearby Weather Stations